Time;durP1;ratioP1;P1;durP2;ratioP2;P2;SDS_P1;SDS_P2;PMS_P1;PMS_P2;Temp;Humidity;BMP_temperature;BMP_pressure;BME280_temperature;BME280_humidity;BME280_pressure;Samples;Min_cycle;Max_cycle;Signal;HPM_P1;HPM_P2
2022/07/30 00:00:08;;;;;;;1.35;1.08;;;12.30;59.20;;;;;;5071729;28;20191;-40
2022/07/30 00:02:40;;;;;;;1.75;1.17;;;12.30;59.30;;;;;;5070947;28;20217;-37
2022/07/30 00:05:11;;;;;;;1.52;1.15;;;12.30;59.30;;;;;;5070982;28;20222;-37
2022/07/30 00:07:44;;;;;;;2.08;1.40;;;12.30;59.30;;;;;;5070220;28;20202;-38
2022/07/30 00:10:15;;;;;;;1.55;1.23;;;12.30;59.30;;;;;;5071304;28;20510;-37
2022/07/30 00:12:45;;;;;;;1.50;1.27;;;12.30;59.30;;;;;;5070976;28;20219;-39
2022/07/30 00:15:16;;;;;;;3.03;1.23;;;12.30;59.30;;;;;;5070874;28;20682;-37
2022/07/30 00:17:47;;;;;;;2.10;1.10;;;12.30;59.30;;;;;;5070953;28;20195;-38
2022/07/30 00:20:18;;;;;;;1.30;1.20;;;12.30;59.30;;;;;;5070818;28;20187;-37
2022/07/30 00:22:50;;;;;;;1.85;1.30;;;12.30;59.30;;;;;;5050185;28;20211;-38
2022/07/30 00:25:21;;;;;;;2.45;1.17;;;12.30;59.30;;;;;;5050648;28;20203;-38
2022/07/30 00:27:52;;;;;;;1.42;1.27;;;12.30;59.30;;;;;;5051231;28;20203;-39
2022/07/30 00:30:22;;;;;;;1.30;1.08;;;12.30;59.30;;;;;;5051632;28;20206;-41
2022/07/30 00:32:53;;;;;;;1.80;1.60;;;12.30;59.30;;;;;;5051089;28;20742;-38
2022/07/30 00:35:24;;;;;;;1.65;1.30;;;12.40;59.40;;;;;;5058278;28;20199;-42
2022/07/30 00:37:56;;;;;;;1.77;1.13;;;12.30;59.40;;;;;;5070530;28;20197;-37
2022/07/30 00:40:27;;;;;;;1.60;1.10;;;12.40;59.40;;;;;;5070485;28;20202;-37
2022/07/30 00:42:58;;;;;;;2.33;1.42;;;12.40;59.40;;;;;;5070414;28;20301;-40
2022/07/30 00:45:29;;;;;;;1.40;1.10;;;12.40;59.40;;;;;;5070291;28;20203;-38
2022/07/30 00:48:00;;;;;;;2.45;1.27;;;12.40;59.40;;;;;;5070285;28;20199;-38
2022/07/30 00:50:31;;;;;;;1.17;1.02;;;12.40;59.40;;;;;;5070073;28;20191;-37
2022/07/30 00:53:03;;;;;;;1.67;1.10;;;12.40;59.40;;;;;;5070551;28;20596;-38
2022/07/30 00:55:34;;;;;;;2.15;1.23;;;12.40;59.30;;;;;;5070095;28;20651;-38
2022/07/30 00:58:05;;;;;;;1.65;1.30;;;12.40;59.40;;;;;;5070569;28;20658;-38
2022/07/30 01:00:35;;;;;;;1.55;1.00;;;12.40;59.40;;;;;;5070275;28;20247;-37
2022/07/30 01:03:06;;;;;;;1.35;1.10;;;12.40;59.40;;;;;;5070249;28;20223;-43
2022/07/30 01:05:37;;;;;;;2.10;1.40;;;12.40;59.40;;;;;;5069835;28;20549;-38
2022/07/30 01:08:10;;;;;;;1.55;1.20;;;12.40;59.40;;;;;;5070207;28;20206;-37
2022/07/30 01:10:40;;;;;;;1.55;1.17;;;12.40;59.40;;;;;;5070155;28;20199;-37
2022/07/30 01:13:11;;;;;;;1.23;1.10;;;12.50;59.50;;;;;;5069984;28;20576;-38
2022/07/30 01:15:42;;;;;;;2.03;1.20;;;12.50;59.50;;;;;;5069539;28;20225;-37
2022/07/30 01:18:15;;;;;;;1.60;1.30;;;12.50;59.50;;;;;;5069872;28;20199;-37
2022/07/30 01:20:57;;;;;;;1.83;1.30;;;12.50;59.50;;;;;;5069379;28;20194;-44
2022/07/30 01:23:36;;;;;;;1.58;1.30;;;12.50;59.50;;;;;;5049763;28;20227;-38
2022/07/30 01:26:11;;;;;;;1.25;1.10;;;12.50;59.50;;;;;;5049750;28;20667;-41
2022/07/30 01:28:44;;;;;;;1.10;1.00;;;12.50;59.50;;;;;;5050184;28;20198;-38
2022/07/30 01:31:16;;;;;;;1.80;1.10;;;12.60;59.50;;;;;;5049545;28;20222;-37
2022/07/30 01:33:49;;;;;;;1.30;1.13;;;12.50;59.40;;;;;;5049496;28;20671;-37
2022/07/30 01:36:23;;;;;;;1.27;1.13;;;12.50;59.50;;;;;;5061889;28;20198;-37
2022/07/30 01:38:54;;;;;;;1.55;1.40;;;12.60;59.60;;;;;;5069966;28;20198;-38
2022/07/30 01:41:28;;;;;;;1.75;1.20;;;12.60;59.50;;;;;;5069672;28;20194;-37
2022/07/30 01:44:00;;;;;;;1.65;1.20;;;12.50;59.50;;;;;;5069589;28;20211;-38
2022/07/30 01:46:32;;;;;;;1.25;0.95;;;12.50;59.50;;;;;;5069751;28;20191;-37
2022/07/30 01:49:04;;;;;;;1.45;1.23;;;12.60;59.60;;;;;;5069214;28;20203;-37
2022/07/30 01:51:35;;;;;;;1.30;1.08;;;12.60;59.60;;;;;;5068998;28;20679;-37
2022/07/30 01:54:07;;;;;;;1.83;1.30;;;12.60;59.50;;;;;;5069473;28;20225;-38
2022/07/30 01:56:40;;;;;;;2.00;1.10;;;12.60;59.50;;;;;;5069833;28;20190;-37
2022/07/30 01:59:12;;;;;;;1.30;1.00;;;12.60;59.50;;;;;;5069828;28;20662;-37
2022/07/30 02:01:43;;;;;;;1.50;1.30;;;12.60;59.50;;;;;;5069890;28;20543;-37
2022/07/30 02:04:14;;;;;;;1.00;0.90;;;12.60;59.50;;;;;;5069422;28;20215;-37
2022/07/30 02:06:48;;;;;;;1.50;1.10;;;12.60;59.50;;;;;;5069339;28;20199;-37
2022/07/30 02:09:24;;;;;;;1.50;1.20;;;12.60;59.60;;;;;;5069784;28;20230;-37
2022/07/30 02:14:50;;;;;;;1.77;0.90;;;12.60;59.60;;;;;;5069420;28;20236;-37
2022/07/30 02:17:25;;;;;;;2.25;1.30;;;12.60;59.50;;;;;;5069751;28;20206;-37
2022/07/30 02:19:58;;;;;;;1.40;1.20;;;12.60;59.50;;;;;;5069127;28;20194;-38
2022/07/30 02:22:33;;;;;;;1.98;1.50;;;12.60;59.60;;;;;;5068900;28;20264;-38
2022/07/30 02:25:05;;;;;;;2.25;1.40;;;12.60;59.60;;;;;;5069368;28;20701;-39
2022/07/30 02:27:40;;;;;;;1.23;1.10;;;12.60;59.70;;;;;;5069428;28;20198;-38
2022/07/30 02:30:12;;;;;;;2.08;1.55;;;12.60;59.60;;;;;;5071462;28;20281;-40
2022/07/30 02:32:46;;;;;;;1.83;1.40;;;12.60;59.60;;;;;;5072739;28;20222;-37
2022/07/30 02:35:21;;;;;;;1.17;1.08;;;12.70;59.60;;;;;;5073124;28;20218;-46
2022/07/30 02:37:54;;;;;;;1.50;1.10;;;12.70;59.60;;;;;;5073119;28;20197;-37
2022/07/30 02:40:26;;;;;;;1.33;1.10;;;12.70;59.60;;;;;;5072937;28;20198;-37
2022/07/30 02:43:00;;;;;;;1.73;1.30;;;12.70;59.60;;;;;;5072695;28;20579;-37
2022/07/30 02:45:32;;;;;;;1.83;1.38;;;12.70;59.70;;;;;;5072734;28;20195;-37
2022/07/30 02:48:06;;;;;;;1.42;1.10;;;12.70;59.70;;;;;;5072371;28;20565;-37
2022/07/30 02:50:38;;;;;;;1.58;1.25;;;12.70;59.70;;;;;;5072762;28;20198;-38
2022/07/30 02:53:13;;;;;;;1.60;1.15;;;12.70;59.70;;;;;;5072692;28;20690;-37
2022/07/30 02:55:45;;;;;;;1.33;1.23;;;12.70;59.70;;;;;;5072503;28;20226;-38
2022/07/30 02:58:22;;;;;;;1.20;1.10;;;12.70;59.70;;;;;;5072270;28;20195;-38
2022/07/30 03:00:55;;;;;;;1.63;1.15;;;12.70;59.80;;;;;;5072216;28;20240;-41
2022/07/30 03:03:28;;;;;;;1.20;1.08;;;12.70;59.70;;;;;;5072647;28;20590;-37
2022/07/30 03:05:59;;;;;;;1.25;0.80;;;12.70;59.70;;;;;;5072397;28;20238;-45
2022/07/30 03:08:33;;;;;;;1.35;1.17;;;12.70;59.70;;;;;;5071772;28;20197;-37
2022/07/30 03:11:04;;;;;;;1.45;1.35;;;12.70;59.70;;;;;;5057705;28;20191;-41
2022/07/30 03:13:37;;;;;;;1.77;1.60;;;12.70;59.80;;;;;;5072206;28;20904;-37
2022/07/30 03:16:11;;;;;;;1.95;1.30;;;12.70;59.70;;;;;;5072129;28;20224;-38
2022/07/30 03:18:44;;;;;;;2.88;1.25;;;12.80;59.70;;;;;;5071990;28;20190;-37
2022/07/30 03:21:16;;;;;;;1.90;1.30;;;12.80;59.70;;;;;;5071932;28;20277;-38
2022/07/30 03:23:49;;;;;;;1.85;1.33;;;12.80;59.70;;;;;;5072137;28;20778;-38
2022/07/30 03:26:23;;;;;;;1.42;1.30;;;12.80;59.70;;;;;;5071923;28;20679;-37
2022/07/30 03:28:56;;;;;;;3.10;1.30;;;12.80;59.80;;;;;;5072142;28;20198;-37
2022/07/30 03:31:27;;;;;;;2.70;1.33;;;12.70;59.70;;;;;;5071488;28;20216;-38
2022/07/30 03:33:59;;;;;;;2.22;1.45;;;12.70;59.80;;;;;;5071472;28;20219;-37
2022/07/30 03:36:30;;;;;;;1.45;1.27;;;12.80;59.80;;;;;;5071579;28;20194;-38
2022/07/30 03:39:01;;;;;;;1.23;1.13;;;12.80;59.80;;;;;;5072225;28;20248;-37
2022/07/30 03:41:32;;;;;;;1.73;1.20;;;12.80;59.80;;;;;;5071415;28;20612;-38
2022/07/30 03:44:05;;;;;;;2.53;1.42;;;12.80;59.80;;;;;;5071326;28;20226;-38
2022/07/30 03:46:38;;;;;;;2.45;1.45;;;12.80;59.80;;;;;;5071563;28;20222;-37
2022/07/30 03:49:10;;;;;;;2.92;1.23;;;12.80;59.80;;;;;;5071384;28;20199;-38
2022/07/30 03:51:41;;;;;;;1.73;1.40;;;12.80;59.90;;;;;;5071251;28;20195;-38
2022/07/30 03:54:12;;;;;;;2.38;1.35;;;12.80;59.90;;;;;;5071403;28;20214;-37
2022/07/30 03:56:43;;;;;;;1.48;1.20;;;12.80;59.90;;;;;;5071747;28;20658;-38
2022/07/30 03:59:16;;;;;;;1.70;1.38;;;12.80;59.90;;;;;;5071533;28;20203;-37
2022/07/30 04:01:47;;;;;;;2.38;1.45;;;12.80;59.90;;;;;;5071412;28;20206;-38
2022/07/30 04:04:17;;;;;;;2.10;1.35;;;12.80;60.00;;;;;;5071003;28;20215;-38
2022/07/30 04:06:48;;;;;;;1.27;1.17;;;12.80;60.00;;;;;;5070487;28;20195;-37
2022/07/30 04:09:19;;;;;;;1.30;1.20;;;12.80;60.00;;;;;;5071041;28;20536;-37
2022/07/30 04:11:50;;;;;;;1.40;1.30;;;12.80;60.00;;;;;;5070990;28;20194;-38
2022/07/30 04:14:22;;;;;;;2.00;1.30;;;12.80;60.00;;;;;;5070985;28;20218;-39
2022/07/30 04:16:58;;;;;;;1.80;1.33;;;12.80;60.00;;;;;;5070996;28;20195;-37
2022/07/30 04:19:31;;;;;;;1.58;1.10;;;12.80;60.00;;;;;;5071177;28;20194;-37
2022/07/30 04:22:04;;;;;;;2.15;1.27;;;12.80;60.00;;;;;;5070946;28;20571;-38
2022/07/30 04:24:35;;;;;;;1.90;1.50;;;12.80;60.00;;;;;;5070917;28;20207;-37
2022/07/30 04:27:06;;;;;;;1.65;1.40;;;12.80;60.10;;;;;;5070816;28;20194;-37
2022/07/30 04:29:39;;;;;;;2.25;1.48;;;12.80;60.10;;;;;;5071156;28;20198;-39
2022/07/30 04:32:11;;;;;;;1.23;1.13;;;12.80;60.10;;;;;;5067825;28;20187;-37
2022/07/30 04:34:49;;;;;;;2.50;1.70;;;12.80;60.20;;;;;;5070749;28;20732;-38
2022/07/30 04:37:22;;;;;;;1.52;1.17;;;12.80;60.20;;;;;;5070502;28;20645;-40
2022/07/30 04:39:54;;;;;;;1.52;1.20;;;12.80;60.20;;;;;;5070638;28;20199;-38
2022/07/30 04:42:25;;;;;;;1.67;1.30;;;12.80;60.20;;;;;;5070165;28;20218;-43
2022/07/30 04:45:00;;;;;;;1.52;1.30;;;12.80;60.20;;;;;;5070790;28;20203;-37
2022/07/30 04:47:30;;;;;;;1.42;1.23;;;12.80;60.30;;;;;;5070665;28;20205;-37
2022/07/30 04:50:02;;;;;;;1.20;1.10;;;12.80;60.30;;;;;;5070328;28;20187;-37
2022/07/30 04:52:33;;;;;;;1.60;1.08;;;12.80;60.20;;;;;;5069537;28;20218;-37
2022/07/30 04:55:08;;;;;;;1.10;1.00;;;12.80;60.30;;;;;;5070622;28;20223;-40
2022/07/30 04:57:41;;;;;;;1.20;1.08;;;12.80;60.30;;;;;;5070320;28;20194;-38
2022/07/30 05:00:15;;;;;;;1.20;1.10;;;12.80;60.30;;;;;;5069740;28;20191;-37
2022/07/30 05:02:47;;;;;;;1.38;1.10;;;12.80;60.40;;;;;;5069828;28;20218;-38
2022/07/30 05:05:20;;;;;;;1.88;1.20;;;12.80;60.40;;;;;;5070424;28;20195;-37
2022/07/30 05:07:51;;;;;;;1.25;1.15;;;12.80;60.40;;;;;;5069859;28;20691;-37
2022/07/30 05:10:21;;;;;;;2.20;1.40;;;12.80;60.40;;;;;;5069790;28;20190;-37
2022/07/30 05:12:52;;;;;;;1.33;1.20;;;12.80;60.40;;;;;;5070273;28;20730;-37
2022/07/30 05:15:25;;;;;;;1.55;1.27;;;12.80;60.50;;;;;;5070463;28;20250;-37
2022/07/30 05:17:55;;;;;;;2.00;1.40;;;12.80;60.50;;;;;;5070218;28;20289;-37
2022/07/30 05:20:26;;;;;;;2.65;1.20;;;12.80;60.50;;;;;;5069834;28;20191;-37
2022/07/30 05:22:57;;;;;;;1.88;1.48;;;12.80;60.50;;;;;;5069332;28;20268;-37
2022/07/30 05:25:28;;;;;;;1.38;1.27;;;12.80;60.50;;;;;;5069193;28;20206;-40
2022/07/30 05:27:59;;;;;;;1.45;1.30;;;12.80;60.50;;;;;;5049542;28;20191;-45
2022/07/30 05:30:31;;;;;;;1.65;1.00;;;12.80;60.50;;;;;;5064609;28;20724;-38
2022/07/30 05:33:02;;;;;;;1.25;1.15;;;12.80;60.50;;;;;;5049990;28;20215;-38
2022/07/30 05:35:32;;;;;;;1.48;1.30;;;12.80;60.50;;;;;;5057688;28;20218;-38
2022/07/30 05:38:03;;;;;;;1.70;1.60;;;12.80;60.50;;;;;;5069669;28;20194;-37
2022/07/30 05:40:34;;;;;;;1.15;1.05;;;12.80;60.50;;;;;;5070082;28;20206;-37
2022/07/30 05:43:05;;;;;;;1.25;1.15;;;12.80;61.30;;;;;;5069905;28;20234;-37
2022/07/30 05:45:37;;;;;;;1.70;1.60;;;12.80;60.60;;;;;;5069798;28;20206;-37
2022/07/30 05:48:09;;;;;;;2.22;1.50;;;12.80;60.60;;;;;;5069517;28;20206;-37
2022/07/30 05:50:39;;;;;;;1.75;1.30;;;12.80;60.60;;;;;;5069233;28;20227;-37
2022/07/30 05:53:10;;;;;;;1.80;1.30;;;12.80;60.60;;;;;;5069448;28;20214;-37
2022/07/30 05:55:41;;;;;;;1.75;1.60;;;12.80;60.60;;;;;;5069263;28;20226;-37
2022/07/30 05:58:11;;;;;;;1.40;1.30;;;12.80;60.60;;;;;;5070094;28;20195;-37
2022/07/30 06:00:44;;;;;;;2.17;1.65;;;12.80;60.60;;;;;;5069981;28;20700;-37
2022/07/30 06:03:15;;;;;;;1.45;1.35;;;12.80;60.50;;;;;;5069449;28;20211;-37
2022/07/30 06:05:45;;;;;;;1.52;1.42;;;12.80;60.50;;;;;;5072192;28;20277;-38
2022/07/30 06:08:16;;;;;;;1.77;1.40;;;12.80;61.00;;;;;;5073687;28;20712;-37
2022/07/30 06:10:47;;;;;;;1.67;1.58;;;12.80;60.60;;;;;;5073716;28;20194;-37
2022/07/30 06:13:18;;;;;;;1.23;1.13;;;12.80;60.60;;;;;;5073127;28;20214;-37
2022/07/30 06:15:51;;;;;;;1.38;1.27;;;12.80;60.60;;;;;;5073007;28;20724;-37
2022/07/30 06:18:21;;;;;;;1.70;1.35;;;12.70;60.50;;;;;;5073470;28;20198;-37
2022/07/30 06:20:53;;;;;;;2.13;1.33;;;12.80;60.70;;;;;;5073418;28;20199;-38
2022/07/30 06:23:24;;;;;;;1.63;1.40;;;12.70;60.60;;;;;;5072980;28;20214;-37
2022/07/30 06:25:55;;;;;;;1.13;1.00;;;12.70;60.60;;;;;;5072998;28;20206;-37
2022/07/30 06:28:25;;;;;;;1.50;1.40;;;12.70;60.60;;;;;;5072964;28;20206;-37
2022/07/30 06:30:58;;;;;;;1.88;1.45;;;12.70;60.60;;;;;;5073202;28;20830;-37
2022/07/30 06:33:28;;;;;;;2.28;1.20;;;12.70;60.60;;;;;;5073178;28;20221;-38
2022/07/30 06:35:59;;;;;;;1.70;1.60;;;12.70;60.60;;;;;;5072896;28;20725;-37
2022/07/30 06:38:30;;;;;;;1.63;1.52;;;12.70;60.60;;;;;;5072830;28;20203;-37
2022/07/30 06:41:01;;;;;;;1.50;1.40;;;12.70;60.60;;;;;;5073036;28;20198;-38
2022/07/30 06:43:32;;;;;;;1.55;1.23;;;12.70;60.50;;;;;;5072981;28;20255;-39
2022/07/30 06:46:04;;;;;;;1.63;1.52;;;12.70;60.60;;;;;;5073284;28;20562;-37
2022/07/30 06:48:36;;;;;;;1.80;1.48;;;12.70;60.60;;;;;;5073065;28;20210;-37
2022/07/30 06:51:06;;;;;;;1.85;1.70;;;12.70;60.70;;;;;;5072434;28;20642;-37
2022/07/30 06:53:37;;;;;;;1.60;1.50;;;12.70;60.70;;;;;;5072732;28;20230;-37
2022/07/30 06:56:10;;;;;;;1.83;1.60;;;12.70;60.70;;;;;;5072706;28;20226;-52
2022/07/30 06:58:40;;;;;;;1.42;1.33;;;12.70;60.70;;;;;;5072608;28;20195;-38
2022/07/30 07:01:13;;;;;;;1.98;1.70;;;12.70;60.70;;;;;;5072521;28;20201;-40
2022/07/30 07:03:44;;;;;;;1.55;1.42;;;12.70;60.70;;;;;;5071633;28;20564;-38
2022/07/30 07:06:14;;;;;;;1.40;1.25;;;12.70;60.70;;;;;;5071698;28;20199;-51
2022/07/30 07:08:45;;;;;;;1.55;1.35;;;12.70;60.70;;;;;;5071977;28;20194;-40
2022/07/30 07:11:16;;;;;;;1.40;1.30;;;12.70;60.70;;;;;;5072101;28;20203;-38
2022/07/30 07:13:46;;;;;;;2.55;1.55;;;12.70;60.70;;;;;;5072181;28;20215;-37
2022/07/30 07:16:20;;;;;;;1.63;1.50;;;12.70;60.70;;;;;;5071422;28;20230;-38
2022/07/30 07:18:51;;;;;;;1.70;1.60;;;12.70;60.70;;;;;;5072348;28;20194;-38
2022/07/30 07:21:22;;;;;;;1.50;1.40;;;12.70;60.80;;;;;;5072248;28;20203;-37
2022/07/30 07:23:52;;;;;;;2.60;1.60;;;12.70;61.00;;;;;;5071892;28;20206;-37
2022/07/30 07:26:23;;;;;;;1.60;1.50;;;12.70;61.00;;;;;;5072154;28;20561;-37
2022/07/30 07:28:54;;;;;;;1.73;1.63;;;12.70;61.00;;;;;;5072439;28;20206;-37
2022/07/30 07:31:27;;;;;;;2.17;1.67;;;12.70;61.00;;;;;;5071857;28;20195;-38
2022/07/30 07:33:57;;;;;;;1.83;1.70;;;12.70;61.80;;;;;;5071728;28;20767;-37
2022/07/30 07:36:28;;;;;;;1.70;1.60;;;12.70;61.00;;;;;;5071681;28;20218;-37
2022/07/30 07:38:59;;;;;;;1.70;1.55;;;12.70;61.00;;;;;;5071402;28;20202;-38
2022/07/30 07:41:29;;;;;;;1.92;1.50;;;12.70;61.00;;;;;;5071614;28;20205;-37
2022/07/30 07:44:00;;;;;;;1.70;1.48;;;12.70;61.00;;;;;;5071331;28;20682;-38
2022/07/30 07:46:32;;;;;;;1.60;1.50;;;12.60;60.90;;;;;;5071775;28;20643;-37
2022/07/30 07:49:03;;;;;;;2.00;1.73;;;12.70;61.00;;;;;;5071507;28;20191;-37
2022/07/30 07:51:34;;;;;;;1.45;1.33;;;12.70;60.90;;;;;;5071466;28;20198;-40
2022/07/30 07:54:05;;;;;;;1.63;1.52;;;12.60;60.90;;;;;;5071092;28;20246;-47
2022/07/30 07:56:36;;;;;;;1.52;1.42;;;12.70;60.90;;;;;;5071348;28;20229;-37
2022/07/30 07:59:07;;;;;;;2.45;1.65;;;12.60;60.90;;;;;;5071217;28;20198;-37
2022/07/30 08:01:39;;;;;;;1.70;1.55;;;12.60;60.90;;;;;;5071373;28;20226;-37
2022/07/30 08:04:10;;;;;;;1.73;1.63;;;12.60;60.90;;;;;;5071687;28;20717;-37
2022/07/30 08:06:41;;;;;;;1.55;1.45;;;12.60;60.90;;;;;;5071698;28;20209;-37
2022/07/30 08:09:11;;;;;;;1.65;1.55;;;12.60;61.00;;;;;;5071410;28;20194;-37
2022/07/30 08:11:42;;;;;;;1.98;1.70;;;12.60;61.00;;;;;;5071301;28;20610;-38
2022/07/30 08:14:13;;;;;;;1.73;1.40;;;12.60;61.00;;;;;;5071240;28;20219;-37
2022/07/30 08:16:45;;;;;;;1.77;1.40;;;12.60;61.00;;;;;;5071532;28;20252;-37
2022/07/30 08:19:16;;;;;;;2.08;1.88;;;12.60;61.00;;;;;;5070798;28;20202;-37
2022/07/30 08:21:47;;;;;;;1.58;1.33;;;12.60;61.00;;;;;;5070732;28;20214;-44
2022/07/30 08:24:17;;;;;;;2.00;1.77;;;12.60;61.00;;;;;;5071017;28;20222;-37
2022/07/30 08:26:48;;;;;;;1.30;1.20;;;12.60;61.00;;;;;;5070716;28;20199;-37
2022/07/30 08:29:19;;;;;;;1.85;1.50;;;12.60;61.10;;;;;;5070683;28;20199;-38
2022/07/30 08:31:55;;;;;;;1.50;1.40;;;12.60;61.00;;;;;;5070921;28;20205;-40
2022/07/30 08:34:25;;;;;;;2.17;1.50;;;12.60;61.00;;;;;;5070685;28;20556;-38
2022/07/30 08:36:56;;;;;;;1.63;1.52;;;12.60;61.00;;;;;;5070953;28;20222;-37
2022/07/30 08:39:27;;;;;;;1.75;1.50;;;12.60;61.00;;;;;;5070727;28;20202;-38
2022/07/30 08:41:59;;;;;;;2.15;1.50;;;12.60;61.00;;;;;;5070709;28;20199;-38
2022/07/30 08:44:31;;;;;;;1.70;1.60;;;12.60;61.00;;;;;;5069849;28;20191;-38
2022/07/30 08:47:05;;;;;;;2.50;1.70;;;12.50;61.00;;;;;;5050656;28;20207;-37
2022/07/30 08:49:36;;;;;;;1.58;1.48;;;12.50;61.10;;;;;;5050519;28;20205;-50
2022/07/30 08:52:08;;;;;;;1.38;1.20;;;12.50;61.10;;;;;;5065016;28;20207;-37
2022/07/30 08:54:40;;;;;;;1.33;1.23;;;12.50;61.10;;;;;;5069821;28;20222;-37
2022/07/30 08:57:10;;;;;;;2.47;1.50;;;12.50;61.10;;;;;;5069605;28;20223;-37
2022/07/30 08:59:42;;;;;;;1.45;1.35;;;12.50;61.10;;;;;;5068994;28;20191;-37
2022/07/30 09:02:14;;;;;;;1.90;1.42;;;12.50;61.10;;;;;;5067789;28;20191;-37
2022/07/30 09:04:45;;;;;;;1.85;1.60;;;12.50;61.10;;;;;;5069441;28;20199;-38
2022/07/30 09:07:16;;;;;;;2.05;1.42;;;12.50;61.10;;;;;;5069037;28;20689;-41
2022/07/30 09:09:46;;;;;;;1.98;1.33;;;12.50;61.10;;;;;;5069858;28;20209;-40
2022/07/30 09:12:37;;;;;;;1.55;1.30;;;12.50;61.10;;;;;;5070035;28;20198;-38
2022/07/30 09:15:09;;;;;;;1.63;1.50;;;12.50;61.10;;;;;;5070060;28;20202;-39
2022/07/30 09:17:56;;;;;;;1.50;1.40;;;12.50;61.10;;;;;;5069595;28;20279;-37
2022/07/30 09:20:28;;;;;;;2.08;1.52;;;12.50;61.10;;;;;;5069765;28;20194;-37
2022/07/30 09:23:02;;;;;;;1.45;1.27;;;12.50;61.20;;;;;;5069297;28;20219;-37
2022/07/30 09:25:42;;;;;;;1.38;1.27;;;12.50;61.30;;;;;;5069664;28;20198;-40
2022/07/30 09:28:13;;;;;;;2.05;1.52;;;12.50;61.30;;;;;;5069484;28;20669;-37
2022/07/30 09:30:48;;;;;;;1.77;1.15;;;12.50;61.30;;;;;;5069312;28;20194;-38
2022/07/30 09:33:35;;;;;;;1.60;1.50;;;12.40;61.20;;;;;;5070007;28;20209;-37
2022/07/30 09:36:07;;;;;;;1.58;1.20;;;12.50;61.30;;;;;;5069692;28;20202;-38
2022/07/30 09:38:50;;;;;;;1.30;1.20;;;12.50;61.30;;;;;;5076031;28;20217;-37
2022/07/30 09:41:25;;;;;;;1.70;1.40;;;12.40;62.00;;;;;;5090014;28;20220;-37
2022/07/30 09:43:55;;;;;;;1.38;1.23;;;12.40;61.20;;;;;;5089390;28;20576;-37
2022/07/30 09:46:45;;;;;;;1.38;1.20;;;12.50;61.30;;;;;;5077312;28;20561;-38
2022/07/30 09:49:22;;;;;;;1.73;1.10;;;12.40;61.40;;;;;;5070313;28;20195;-38
2022/07/30 09:51:54;;;;;;;1.35;1.25;;;12.40;61.70;;;;;;5066378;28;20558;-37
2022/07/30 09:54:24;;;;;;;1.35;1.25;;;12.40;61.70;;;;;;5069551;28;21323;-37
2022/07/30 09:57:08;;;;;;;1.67;1.30;;;12.50;61.80;;;;;;5070361;28;20233;-37
2022/07/30 09:59:39;;;;;;;1.55;1.20;;;12.50;61.80;;;;;;5070660;28;20715;-38
2022/07/30 10:05:18;;;;;;;1.33;1.23;;;12.50;61.70;;;;;;5057490;28;20284;-51
2022/07/30 10:07:53;;;;;;;1.23;1.17;;;12.50;61.60;;;;;;5050013;28;20195;-37
2022/07/30 10:10:26;;;;;;;1.52;1.42;;;12.50;61.60;;;;;;5088942;28;20237;-50
2022/07/30 10:13:00;;;;;;;1.67;1.40;;;12.50;61.60;;;;;;5090522;28;20733;-42
2022/07/30 10:15:33;;;;;;;1.40;1.25;;;12.50;61.60;;;;;;5090024;28;20194;-52
2022/07/30 10:18:05;;;;;;;1.25;1.02;;;12.40;61.50;;;;;;5065118;28;20222;-50
2022/07/30 10:20:38;;;;;;;1.30;1.20;;;12.40;61.40;;;;;;5051909;28;20200;-50
2022/07/30 10:23:10;;;;;;;2.22;1.38;;;12.40;61.50;;;;;;5070120;28;20219;-50
2022/07/30 10:25:41;;;;;;;1.15;1.00;;;12.40;61.50;;;;;;5049231;28;20834;-41
2022/07/30 10:28:12;;;;;;;1.55;1.45;;;12.40;61.40;;;;;;5049160;28;20192;-50
2022/07/30 10:30:44;;;;;;;1.38;1.23;;;12.40;61.50;;;;;;5070394;28;20198;-48
2022/07/30 10:33:14;;;;;;;1.70;1.50;;;12.40;61.50;;;;;;5070786;28;20578;-54
2022/07/30 10:35:47;;;;;;;1.60;1.40;;;12.40;61.50;;;;;;5070335;28;20206;-41
2022/07/30 10:38:20;;;;;;;1.30;1.20;;;12.40;61.50;;;;;;5069650;28;20231;-41
2022/07/30 10:40:57;;;;;;;1.65;1.02;;;12.40;61.50;;;;;;5063842;28;20200;-41
2022/07/30 10:44:00;;;;;;;1.30;1.15;;;12.40;61.50;;;;;;5051859;28;20578;-47
2022/07/30 10:46:45;;;;;;;1.40;1.20;;;12.30;61.40;;;;;;5079306;28;20198;-47
2022/07/30 10:49:17;;;;;;;2.35;1.50;;;12.40;61.40;;;;;;5070551;28;20214;-56
2022/07/30 10:51:51;;;;;;;1.20;1.10;;;12.40;61.40;;;;;;5072988;28;20210;-41
2022/07/30 10:54:40;;;;;;;1.67;1.30;;;12.30;61.30;;;;;;5072981;28;20203;-44
2022/07/30 10:57:13;;;;;;;1.13;1.02;;;12.30;61.30;;;;;;5073420;28;20745;-56
2022/07/30 11:00:12;;;;;;;1.42;1.02;;;12.40;61.40;;;;;;5072976;28;20199;-53
2022/07/30 11:03:03;;;;;;;1.30;1.20;;;12.30;61.30;;;;;;5073482;28;20644;-47
2022/07/30 11:05:34;;;;;;;1.20;1.10;;;12.30;61.30;;;;;;5073162;28;20826;-41
2022/07/30 11:08:39;;;;;;;2.17;1.30;;;12.30;61.30;;;;;;5073651;28;20195;-38
2022/07/30 11:11:47;;;;;;;1.65;1.30;;;12.30;61.40;;;;;;5072670;28;20205;-49
2022/07/30 11:14:18;;;;;;;1.33;1.20;;;12.20;61.30;;;;;;5073879;28;20219;-46
2022/07/30 11:17:04;;;;;;;1.33;1.23;;;12.20;61.30;;;;;;5072258;28;20216;-48
2022/07/30 11:19:35;;;;;;;1.27;1.15;;;12.20;61.30;;;;;;5073919;28;20728;-39
2022/07/30 11:22:30;;;;;;;1.02;1.00;;;12.20;61.30;;;;;;5072527;28;20202;-45
2022/07/30 11:25:02;;;;;;;1.42;1.20;;;12.20;61.40;;;;;;5085012;28;20275;-39
2022/07/30 11:27:40;;;;;;;1.30;1.10;;;12.20;61.40;;;;;;5092458;28;20259;-38
2022/07/30 11:30:42;;;;;;;0.95;0.95;;;12.20;61.30;;;;;;5092959;28;20201;-42
2022/07/30 11:33:28;;;;;;;1.40;1.30;;;12.20;61.30;;;;;;5093111;28;20228;-51
2022/07/30 11:36:15;;;;;;;0.82;0.82;;;12.20;61.30;;;;;;5093427;28;20201;-44
2022/07/30 11:38:59;;;;;;;1.30;1.20;;;12.20;61.30;;;;;;5092598;28;20234;-53
2022/07/30 11:41:32;;;;;;;0.98;0.93;;;12.20;61.30;;;;;;5082021;28;20320;-48
2022/07/30 11:44:30;;;;;;;1.42;1.10;;;12.20;61.30;;;;;;5072667;28;20215;-44
2022/07/30 11:47:01;;;;;;;0.98;0.95;;;12.20;61.40;;;;;;5072072;28;20191;-40
2022/07/30 11:49:38;;;;;;;1.20;0.95;;;12.10;61.30;;;;;;5071842;28;20198;-51
2022/07/30 11:52:09;;;;;;;1.15;1.05;;;12.10;61.30;;;;;;5072081;28;20198;-41
2022/07/30 11:54:54;;;;;;;1.17;1.08;;;12.10;61.30;;;;;;5072599;28;20191;-56
2022/07/30 11:57:42;;;;;;;1.13;1.02;;;12.10;61.30;;;;;;5072624;28;20561;-56
2022/07/30 12:00:13;;;;;;;1.45;1.00;;;12.10;61.30;;;;;;5073017;28;20206;-49
2022/07/30 12:02:44;;;;;;;1.05;0.98;;;12.10;61.20;;;;;;5071772;28;20302;-42
2022/07/30 12:05:14;;;;;;;1.52;1.10;;;12.10;61.20;;;;;;5072490;28;20538;-38
2022/07/30 12:07:45;;;;;;;1.05;1.00;;;12.10;61.10;;;;;;5071859;28;20682;-38
2022/07/30 12:10:17;;;;;;;0.90;0.90;;;12.10;61.40;;;;;;5072565;28;20588;-46
2022/07/30 12:12:50;;;;;;;1.13;0.90;;;12.20;61.60;;;;;;5071484;28;20219;-38
2022/07/30 12:15:34;;;;;;;0.88;0.88;;;12.20;61.70;;;;;;5072665;28;20198;-37
2022/07/30 12:18:04;;;;;;;1.58;1.20;;;12.20;61.60;;;;;;5072252;28;20592;-41
2022/07/30 12:20:35;;;;;;;1.25;1.15;;;12.20;61.50;;;;;;5072171;28;20202;-37
2022/07/30 12:23:12;;;;;;;1.23;1.13;;;12.20;61.50;;;;;;5070990;28;20245;-38
2022/07/30 12:25:43;;;;;;;1.30;1.00;;;12.10;61.40;;;;;;5050886;28;20199;-37
2022/07/30 12:28:23;;;;;;;1.15;1.00;;;12.10;61.40;;;;;;5051386;28;20198;-40
2022/07/30 12:30:55;;;;;;;1.25;1.15;;;12.10;61.40;;;;;;5057533;28;20205;-37
2022/07/30 12:33:26;;;;;;;1.02;0.95;;;12.10;61.40;;;;;;5091420;28;20214;-39
2022/07/30 12:35:58;;;;;;;1.10;0.90;;;12.10;61.30;;;;;;5090868;28;20190;-38
2022/07/30 12:38:30;;;;;;;0.90;0.88;;;12.10;61.30;;;;;;5090750;28;20229;-37
2022/07/30 12:41:04;;;;;;;1.13;1.02;;;12.10;61.30;;;;;;5090701;28;20190;-38
2022/07/30 12:43:51;;;;;;;1.10;0.90;;;12.10;61.30;;;;;;5090610;28;20221;-37
2022/07/30 12:46:24;;;;;;;1.35;1.05;;;12.10;61.20;;;;;;5090247;28;20279;-37
2022/07/30 12:48:57;;;;;;;1.13;1.00;;;12.10;62.00;;;;;;5090990;28;20609;-37
2022/07/30 12:51:31;;;;;;;0.80;0.80;;;12.00;61.20;;;;;;5080971;28;20662;-37
2022/07/30 12:54:03;;;;;;;1.10;1.00;;;12.00;61.20;;;;;;5069574;28;20249;-38
2022/07/30 12:56:33;;;;;;;1.23;0.80;;;12.00;61.20;;;;;;5070358;28;20209;-50
2022/07/30 12:59:06;;;;;;;1.70;0.90;;;12.00;61.30;;;;;;5070508;28;20230;-37
2022/07/30 13:01:45;;;;;;;1.27;1.13;;;12.00;61.20;;;;;;5069848;28;20205;-37
2022/07/30 13:04:16;;;;;;;2.25;1.08;;;12.00;61.30;;;;;;5069877;28;20835;-38
2022/07/30 13:07:03;;;;;;;1.52;1.08;;;12.00;61.30;;;;;;5069856;28;20721;-38
2022/07/30 13:09:34;;;;;;;0.90;0.80;;;12.00;61.30;;;;;;5070012;28;20830;-37
2022/07/30 13:12:05;;;;;;;1.35;0.90;;;12.00;61.20;;;;;;5070111;28;20537;-38
2022/07/30 13:14:38;;;;;;;1.10;1.00;;;12.00;61.20;;;;;;5069483;28;20195;-37
2022/07/30 13:17:09;;;;;;;1.08;0.90;;;12.00;61.20;;;;;;5069854;28;20199;-37
2022/07/30 13:19:40;;;;;;;1.15;1.05;;;12.00;61.20;;;;;;5069231;28;20240;-37
2022/07/30 13:22:12;;;;;;;0.90;0.90;;;12.00;61.10;;;;;;5069730;28;20191;-38
2022/07/30 13:24:42;;;;;;;1.10;1.00;;;12.00;61.10;;;;;;5069943;28;20195;-37